BEL5BS EBBR-LFPG
Flight info
| Callsign | BEL5BS |
|---|---|
| Flight time | 0h 40m |
| Altitude | 19000 |
| Route | CIV Y50 IDOKO/N0343F170 Y50 MATIX |
| Aircraft | A320/M-SDE3FGHIRWY/LB1 |
Departure
| Time | 2026-05-05 20:27 |
|---|---|
| Airport | Brussels Airport (EBBR) |
Arrival
| Time | 2026-05-05 21:07 |
|---|---|
| Airport | Charles de Gaulle International Airport (LFPG) |
| Time | Latitude | Longitude | Altitude | Speed | Heading |
|---|---|---|---|---|---|
| 2026-05-05 20:01 | 50.90409 | 4.48594 | 121 ft | 0 kts | 155° |
| 2026-05-05 20:17 | 50.90416 | 4.48589 | 121 ft | 4 kts | 155° |
| 2026-05-05 20:18 | 50.90441 | 4.48569 | 118 ft | 4 kts | 150° |
| 2026-05-05 20:18 | 50.90463 | 4.48546 | 119 ft | 4 kts | 138° |
| 2026-05-05 20:18 | 50.90478 | 4.48516 | 118 ft | 4 kts | 98° |
| 2026-05-05 20:18 | 50.90478 | 4.48498 | 118 ft | 0 kts | 65° |
| 2026-05-05 20:21 | 50.90485 | 4.48520 | 116 ft | 4 kts | 65° |
| 2026-05-05 20:21 | 50.90515 | 4.48627 | 120 ft | 14 kts | 67° |
| 2026-05-05 20:21 | 50.90562 | 4.48785 | 118 ft | 18 kts | 64° |
| 2026-05-05 20:21 | 50.90612 | 4.48970 | 116 ft | 17 kts | 66° |
| 2026-05-05 20:22 | 50.90628 | 4.49137 | 121 ft | 14 kts | 133° |
| 2026-05-05 20:22 | 50.90553 | 4.49201 | 120 ft | 14 kts | 156° |
| 2026-05-05 20:22 | 50.90439 | 4.49285 | 121 ft | 20 kts | 153° |
| 2026-05-05 20:22 | 50.90324 | 4.49386 | 125 ft | 19 kts | 140° |
| 2026-05-05 20:23 | 50.90210 | 4.49375 | 126 ft | 21 kts | 200° |
| 2026-05-05 20:23 | 50.90068 | 4.49323 | 129 ft | 21 kts | 191° |
| 2026-05-05 20:23 | 50.89933 | 4.49262 | 136 ft | 19 kts | 197° |
| 2026-05-05 20:23 | 50.89807 | 4.49211 | 143 ft | 19 kts | 198° |
| 2026-05-05 20:24 | 50.89692 | 4.49163 | 149 ft | 15 kts | 191° |
| 2026-05-05 20:24 | 50.89617 | 4.49104 | 154 ft | 13 kts | 218° |
| 2026-05-05 20:24 | 50.89534 | 4.49055 | 157 ft | 16 kts | 194° |
| 2026-05-05 20:24 | 50.89395 | 4.49019 | 162 ft | 20 kts | 154° |
| 2026-05-05 20:25 | 50.89310 | 4.49084 | 167 ft | 9 kts | 182° |
| 2026-05-05 20:25 | 50.89289 | 4.49079 | 168 ft | 0 kts | 195° |
| 2026-05-05 20:26 | 50.89232 | 4.49053 | 173 ft | 24 kts | 197° |
| 2026-05-05 20:26 | 50.89149 | 4.49103 | 176 ft | 2 kts | 55° |
| 2026-05-05 20:26 | 50.89179 | 4.49234 | 176 ft | 42 kts | 71° |
| 2026-05-05 20:26 | 50.89366 | 4.50041 | 177 ft | 112 kts | 70° |
| 2026-05-05 20:27 | 50.89697 | 4.51477 | 361 ft | 145 kts | 69° |
| 2026-05-05 20:27 | 50.90046 | 4.52959 | 1006 ft | 146 kts | 62° |
| 2026-05-05 20:27 | 50.90497 | 4.54404 | 1728 ft | 146 kts | 59° |
| 2026-05-05 20:27 | 50.90978 | 4.55873 | 2227 ft | 159 kts | 60° |
| 2026-05-05 20:28 | 50.91525 | 4.57532 | 2560 ft | 180 kts | 60° |
| 2026-05-05 20:28 | 50.92120 | 4.59338 | 3072 ft | 190 kts | 61° |
| 2026-05-05 20:28 | 50.92771 | 4.61309 | 3429 ft | 214 kts | 62° |
| 2026-05-05 20:28 | 50.93470 | 4.63549 | 3898 ft | 239 kts | 69° |
| 2026-05-05 20:29 | 50.93609 | 4.66245 | 4635 ft | 255 kts | 100° |
| 2026-05-05 20:29 | 50.92787 | 4.68775 | 5482 ft | 268 kts | 133° |
| 2026-05-05 20:29 | 50.91145 | 4.70225 | 6361 ft | 280 kts | 167° |
| 2026-05-05 20:29 | 50.89203 | 4.70003 | 7223 ft | 287 kts | 201° |
| 2026-05-05 20:30 | 50.87595 | 4.68151 | 8094 ft | 291 kts | 230° |
| 2026-05-05 20:30 | 50.86454 | 4.65519 | 9070 ft | 291 kts | 241° |
| 2026-05-05 20:30 | 50.85520 | 4.62663 | 9987 ft | 294 kts | 245° |
| 2026-05-05 20:30 | 50.84613 | 4.59641 | 10426 ft | 315 kts | 245° |
| 2026-05-05 20:31 | 50.83627 | 4.56404 | 10785 ft | 336 kts | 244° |
| 2026-05-05 20:31 | 50.82555 | 4.53065 | 11454 ft | 344 kts | 243° |
| 2026-05-05 20:31 | 50.81422 | 4.49711 | 12252 ft | 349 kts | 242° |
| 2026-05-05 20:31 | 50.80201 | 4.46354 | 12981 ft | 356 kts | 235° |
| 2026-05-05 20:32 | 50.78481 | 4.43522 | 13733 ft | 359 kts | 214° |
| 2026-05-05 20:32 | 50.76315 | 4.41611 | 14547 ft | 357 kts | 205° |
| 2026-05-05 20:32 | 50.74080 | 4.39875 | 15346 ft | 357 kts | 204° |
| 2026-05-05 20:32 | 50.71842 | 4.38164 | 16136 ft | 358 kts | 204° |
| 2026-05-05 20:33 | 50.69599 | 4.36465 | 16955 ft | 358 kts | 205° |
| 2026-05-05 20:33 | 50.67344 | 4.34759 | 17681 ft | 361 kts | 205° |
| 2026-05-05 20:33 | 50.65070 | 4.33034 | 18350 ft | 364 kts | 205° |
| 2026-05-05 20:33 | 50.62779 | 4.31292 | 18745 ft | 367 kts | 205° |
| 2026-05-05 20:34 | 50.60488 | 4.29539 | 18844 ft | 365 kts | 205° |
| 2026-05-05 20:34 | 50.58234 | 4.27819 | 18865 ft | 357 kts | 205° |
| 2026-05-05 20:34 | 50.55999 | 4.26120 | 18868 ft | 356 kts | 205° |
| 2026-05-05 20:34 | 50.53772 | 4.24429 | 18868 ft | 355 kts | 205° |
| 2026-05-05 20:35 | 50.51547 | 4.22740 | 18866 ft | 355 kts | 205° |
| 2026-05-05 20:35 | 50.49323 | 4.21054 | 18866 ft | 355 kts | 205° |
| 2026-05-05 20:35 | 50.47099 | 4.19372 | 18866 ft | 355 kts | 205° |
| 2026-05-05 20:35 | 50.44871 | 4.17688 | 18866 ft | 355 kts | 205° |
| 2026-05-05 20:36 | 50.42647 | 4.16006 | 18864 ft | 355 kts | 205° |
| 2026-05-05 20:36 | 50.40425 | 4.14330 | 18864 ft | 355 kts | 205° |
| 2026-05-05 20:36 | 50.38228 | 4.12675 | 18863 ft | 355 kts | 205° |
| 2026-05-05 20:36 | 50.35975 | 4.10977 | 18863 ft | 355 kts | 205° |
| 2026-05-05 20:37 | 50.33751 | 4.09300 | 18865 ft | 355 kts | 204° |
| 2026-05-05 20:37 | 50.31555 | 4.07647 | 18863 ft | 355 kts | 205° |
| 2026-05-05 20:37 | 50.29326 | 4.05970 | 18860 ft | 355 kts | 205° |
| 2026-05-05 20:37 | 50.27067 | 4.04272 | 18855 ft | 356 kts | 204° |
| 2026-05-05 20:38 | 50.24862 | 4.02619 | 18851 ft | 356 kts | 204° |
| 2026-05-05 20:38 | 50.22630 | 4.00951 | 18855 ft | 356 kts | 205° |
| 2026-05-05 20:38 | 50.20391 | 3.99281 | 18854 ft | 356 kts | 204° |
| 2026-05-05 20:38 | 50.18157 | 3.97615 | 18851 ft | 357 kts | 204° |
| 2026-05-05 20:39 | 50.15914 | 3.95947 | 18848 ft | 357 kts | 204° |
| 2026-05-05 20:39 | 50.13677 | 3.94284 | 18855 ft | 356 kts | 205° |
| 2026-05-05 20:39 | 50.11397 | 3.92778 | 18859 ft | 356 kts | 196° |
| 2026-05-05 20:39 | 50.08981 | 3.91983 | 18855 ft | 355 kts | 185° |
| 2026-05-05 20:40 | 50.06518 | 3.91970 | 18842 ft | 354 kts | 174° |
| 2026-05-05 20:40 | 50.04060 | 3.92243 | 18781 ft | 352 kts | 182° |
| 2026-05-05 20:40 | 50.01697 | 3.91481 | 18547 ft | 344 kts | 197° |
| 2026-05-05 20:40 | 49.99446 | 3.90337 | 18309 ft | 338 kts | 197° |
| 2026-05-05 20:41 | 49.97229 | 3.89209 | 18069 ft | 334 kts | 198° |
| 2026-05-05 20:41 | 49.95017 | 3.88086 | 17797 ft | 334 kts | 197° |
| 2026-05-05 20:41 | 49.92821 | 3.86975 | 17525 ft | 331 kts | 197° |
| 2026-05-05 20:41 | 49.90637 | 3.85874 | 17258 ft | 329 kts | 197° |
| 2026-05-05 20:42 | 49.88474 | 3.84785 | 16987 ft | 326 kts | 197° |
| 2026-05-05 20:42 | 49.86329 | 3.83709 | 16724 ft | 324 kts | 197° |
| 2026-05-05 20:42 | 49.84179 | 3.82634 | 16463 ft | 325 kts | 197° |
| 2026-05-05 20:42 | 49.82041 | 3.81563 | 16204 ft | 322 kts | 197° |
| 2026-05-05 20:43 | 49.79919 | 3.80504 | 15947 ft | 319 kts | 197° |
| 2026-05-05 20:43 | 49.77813 | 3.79461 | 15697 ft | 318 kts | 197° |
| 2026-05-05 20:43 | 49.75706 | 3.78416 | 15448 ft | 317 kts | 197° |
| 2026-05-05 20:43 | 49.73611 | 3.77335 | 15197 ft | 318 kts | 202° |
| 2026-05-05 20:44 | 49.71750 | 3.75531 | 14946 ft | 316 kts | 219° |
| 2026-05-05 20:44 | 49.70091 | 3.73304 | 14819 ft | 316 kts | 224° |
| 2026-05-05 20:44 | 49.68844 | 3.70510 | 14832 ft | 319 kts | 238° |
| 2026-05-05 20:44 | 49.67750 | 3.67541 | 14832 ft | 318 kts | 239° |
| 2026-05-05 20:45 | 49.65561 | 3.61590 | 14834 ft | 318 kts | 239° |
| 2026-05-05 20:45 | 49.64464 | 3.58636 | 14837 ft | 319 kts | 239° |
| 2026-05-05 20:45 | 49.63348 | 3.55661 | 14837 ft | 321 kts | 239° |
| 2026-05-05 20:46 | 49.62224 | 3.52675 | 14831 ft | 322 kts | 239° |
| 2026-05-05 20:46 | 49.61094 | 3.49687 | 14835 ft | 322 kts | 238° |
| 2026-05-05 20:46 | 49.59965 | 3.46704 | 14833 ft | 322 kts | 239° |
| 2026-05-05 20:46 | 49.58838 | 3.43721 | 14835 ft | 322 kts | 239° |
| 2026-05-05 20:47 | 49.57711 | 3.40739 | 14838 ft | 322 kts | 239° |
| 2026-05-05 20:47 | 49.56581 | 3.37756 | 14840 ft | 323 kts | 239° |
| 2026-05-05 20:47 | 49.55449 | 3.34775 | 14837 ft | 322 kts | 239° |
| 2026-05-05 20:47 | 49.54332 | 3.31839 | 14834 ft | 322 kts | 238° |
| 2026-05-05 20:48 | 49.53185 | 3.28829 | 14832 ft | 322 kts | 239° |
| 2026-05-05 20:48 | 49.52050 | 3.25851 | 14834 ft | 323 kts | 239° |
| 2026-05-05 20:48 | 49.50915 | 3.22877 | 14833 ft | 322 kts | 239° |
| 2026-05-05 20:48 | 49.49779 | 3.19901 | 14840 ft | 322 kts | 239° |
| 2026-05-05 20:49 | 49.48645 | 3.16929 | 14847 ft | 322 kts | 239° |
| 2026-05-05 20:49 | 49.47514 | 3.13956 | 14834 ft | 321 kts | 239° |
| 2026-05-05 20:49 | 49.46382 | 3.10990 | 14845 ft | 323 kts | 239° |
| 2026-05-05 20:49 | 49.45243 | 3.08015 | 14840 ft | 323 kts | 239° |
| 2026-05-05 20:50 | 49.44105 | 3.05048 | 14840 ft | 322 kts | 238° |
| 2026-05-05 20:50 | 49.43351 | 3.03084 | 14845 ft | 323 kts | 239° |
| 2026-05-05 20:50 | 49.41841 | 2.99148 | 14845 ft | 323 kts | 239° |
| 2026-05-05 20:50 | 49.40700 | 2.96180 | 14843 ft | 323 kts | 239° |
| 2026-05-05 20:51 | 49.39554 | 2.93205 | 14511 ft | 324 kts | 239° |
| 2026-05-05 20:51 | 49.38410 | 2.90246 | 14147 ft | 321 kts | 239° |
| 2026-05-05 20:51 | 49.37272 | 2.87303 | 13789 ft | 320 kts | 239° |
| 2026-05-05 20:51 | 49.36140 | 2.84379 | 13409 ft | 318 kts | 239° |
| 2026-05-05 20:52 | 49.35014 | 2.81471 | 13011 ft | 317 kts | 239° |
| 2026-05-05 20:52 | 49.33889 | 2.78574 | 12599 ft | 315 kts | 239° |
| 2026-05-05 20:52 | 49.32768 | 2.75694 | 12222 ft | 314 kts | 239° |
| 2026-05-05 20:52 | 49.31650 | 2.72816 | 11839 ft | 313 kts | 239° |
| 2026-05-05 20:53 | 49.30541 | 2.69954 | 11452 ft | 312 kts | 239° |
| 2026-05-05 20:53 | 49.29433 | 2.67100 | 11072 ft | 311 kts | 239° |
| 2026-05-05 20:53 | 49.28322 | 2.64245 | 10835 ft | 315 kts | 239° |
| 2026-05-05 20:53 | 49.27194 | 2.61358 | 10839 ft | 318 kts | 239° |
| 2026-05-05 20:54 | 49.26058 | 2.58435 | 10404 ft | 321 kts | 240° |
| 2026-05-05 20:54 | 49.24983 | 2.55433 | 9921 ft | 322 kts | 242° |
| 2026-05-05 20:54 | 49.23920 | 2.52419 | 9400 ft | 323 kts | 242° |
| 2026-05-05 20:54 | 49.22851 | 2.49408 | 8866 ft | 318 kts | 242° |
| 2026-05-05 20:55 | 49.22161 | 2.47471 | 8527 ft | 310 kts | 242° |
| 2026-05-05 20:55 | 49.21147 | 2.44625 | 8016 ft | 299 kts | 242° |
| 2026-05-05 20:55 | 49.20149 | 2.41837 | 7506 ft | 292 kts | 242° |
| 2026-05-05 20:55 | 49.19186 | 2.39166 | 7010 ft | 289 kts | 242° |
| 2026-05-05 20:56 | 49.18214 | 2.36485 | 6514 ft | 287 kts | 242° |
| 2026-05-05 20:56 | 49.17247 | 2.33829 | 6014 ft | 285 kts | 242° |
| 2026-05-05 20:56 | 49.16280 | 2.31193 | 5497 ft | 284 kts | 242° |
| 2026-05-05 20:56 | 49.15312 | 2.28570 | 4992 ft | 283 kts | 242° |
| 2026-05-05 20:57 | 49.14031 | 2.25127 | 4309 ft | 272 kts | 242° |
| 2026-05-05 20:57 | 49.13415 | 2.23488 | 4069 ft | 265 kts | 243° |
| 2026-05-05 20:57 | 49.12502 | 2.21136 | 3995 ft | 249 kts | 242° |
| 2026-05-05 20:57 | 49.11659 | 2.18928 | 4004 ft | 233 kts | 242° |
| 2026-05-05 20:58 | 49.10869 | 2.16849 | 4004 ft | 220 kts | 242° |
| 2026-05-05 20:58 | 49.10132 | 2.14938 | 4016 ft | 200 kts | 242° |
| 2026-05-05 20:58 | 49.09436 | 2.13180 | 4003 ft | 191 kts | 242° |
| 2026-05-05 20:58 | 49.08745 | 2.11421 | 4002 ft | 194 kts | 243° |
| 2026-05-05 20:59 | 49.07904 | 2.09802 | 4003 ft | 198 kts | 215° |
| 2026-05-05 20:59 | 49.06611 | 2.09199 | 4009 ft | 196 kts | 174° |
| 2026-05-05 20:59 | 49.05382 | 2.09902 | 4016 ft | 188 kts | 140° |
| 2026-05-05 20:59 | 49.04381 | 2.11160 | 4009 ft | 186 kts | 133° |
| 2026-05-05 21:00 | 49.03429 | 2.12494 | 4005 ft | 186 kts | 132° |
| 2026-05-05 21:00 | 49.02481 | 2.13840 | 4006 ft | 186 kts | 131° |
| 2026-05-05 21:00 | 49.01540 | 2.15203 | 4000 ft | 187 kts | 130° |
| 2026-05-05 21:00 | 49.00859 | 2.16833 | 4010 ft | 180 kts | 107° |
| 2026-05-05 21:01 | 49.00609 | 2.18648 | 4010 ft | 172 kts | 86° |
| 2026-05-05 21:01 | 49.00690 | 2.20447 | 4012 ft | 171 kts | 81° |
| 2026-05-05 21:01 | 49.00792 | 2.22257 | 4010 ft | 172 kts | 80° |
| 2026-05-05 21:01 | 49.00896 | 2.24081 | 3990 ft | 173 kts | 81° |
| 2026-05-05 21:02 | 49.00995 | 2.25833 | 3844 ft | 159 kts | 80° |
| 2026-05-05 21:02 | 49.01088 | 2.27483 | 3670 ft | 154 kts | 82° |
| 2026-05-05 21:02 | 49.01179 | 2.29085 | 3460 ft | 149 kts | 79° |
| 2026-05-05 21:02 | 49.01264 | 2.30609 | 3272 ft | 139 kts | 79° |
| 2026-05-05 21:03 | 49.01346 | 2.32067 | 3090 ft | 137 kts | 79° |
| 2026-05-05 21:03 | 49.01426 | 2.33501 | 2909 ft | 135 kts | 78° |
| 2026-05-05 21:03 | 49.01506 | 2.34922 | 2722 ft | 136 kts | 78° |
| 2026-05-05 21:03 | 49.01588 | 2.36376 | 2548 ft | 138 kts | 77° |
| 2026-05-05 21:04 | 49.01669 | 2.37839 | 2364 ft | 140 kts | 77° |
| 2026-05-05 21:04 | 49.01749 | 2.39298 | 2201 ft | 136 kts | 78° |
| 2026-05-05 21:04 | 49.01825 | 2.40724 | 1984 ft | 136 kts | 78° |
| 2026-05-05 21:04 | 49.01894 | 2.42159 | 1801 ft | 136 kts | 77° |
| 2026-05-05 21:05 | 49.01980 | 2.43594 | 1585 ft | 137 kts | 77° |
| 2026-05-05 21:05 | 49.02062 | 2.45032 | 1414 ft | 135 kts | 77° |
| 2026-05-05 21:05 | 49.02136 | 2.46440 | 1206 ft | 135 kts | 78° |
| 2026-05-05 21:05 | 49.02216 | 2.47871 | 1028 ft | 136 kts | 79° |
| 2026-05-05 21:06 | 49.02295 | 2.49321 | 832 ft | 136 kts | 80° |
| 2026-05-05 21:06 | 49.02377 | 2.50736 | 636 ft | 136 kts | 81° |
| 2026-05-05 21:06 | 49.02457 | 2.52163 | 429 ft | 134 kts | 80° |
| 2026-05-05 21:06 | 49.02520 | 2.53553 | 365 ft | 123 kts | 81° |
| 2026-05-05 21:07 | 49.02590 | 2.54601 | 352 ft | 75 kts | 86° |
| 2026-05-05 21:07 | 49.02599 | 2.55162 | 356 ft | 39 kts | 96° |
| 2026-05-05 21:07 | 49.02510 | 2.55482 | 356 ft | 21 kts | 114° |
| 2026-05-05 21:07 | 49.02434 | 2.55607 | 354 ft | 13 kts | 161° |
| 2026-05-05 21:08 | 49.02364 | 2.55617 | 354 ft | 8 kts | 175° |
| 2026-05-05 21:08 | 49.02329 | 2.55621 | 355 ft | 2 kts | 175° |
| 2026-05-05 21:08 | 49.02263 | 2.55632 | 355 ft | 16 kts | 174° |
| 2026-05-05 21:08 | 49.02168 | 2.55642 | 361 ft | 14 kts | 176° |
| 2026-05-05 21:09 | 49.02028 | 2.55661 | 354 ft | 20 kts | 174° |
| 2026-05-05 21:09 | 49.01914 | 2.55651 | 354 ft | 14 kts | 210° |
| 2026-05-05 21:09 | 49.01880 | 2.55491 | 354 ft | 19 kts | 263° |
| 2026-05-05 21:09 | 49.01872 | 2.55310 | 354 ft | 15 kts | 270° |
| 2026-05-05 21:10 | 49.01863 | 2.55172 | 354 ft | 12 kts | 264° |
| 2026-05-05 21:10 | 49.01857 | 2.55032 | 354 ft | 12 kts | 262° |
| 2026-05-05 21:10 | 49.01854 | 2.54937 | 354 ft | 8 kts | 266° |
| 2026-05-05 21:10 | 49.01844 | 2.54801 | 358 ft | 25 kts | 266° |
| 2026-05-05 21:11 | 49.01832 | 2.54541 | 354 ft | 23 kts | 262° |
| 2026-05-05 21:11 | 49.01820 | 2.54319 | 354 ft | 20 kts | 264° |
| 2026-05-05 21:11 | 49.01799 | 2.54160 | 362 ft | 9 kts | 229° |
| 2026-05-05 21:11 | 49.01754 | 2.54123 | 358 ft | 7 kts | 203° |
| 2026-05-05 21:12 | 49.01734 | 2.54109 | 358 ft | 3 kts | 208° |
| 2026-05-05 21:12 | 49.01718 | 2.54095 | 359 ft | 0 kts | 209° |